Time;durP1;ratioP1;P1;durP2;ratioP2;P2;SDS_P1;SDS_P2;PMS_P1;PMS_P2;Temp;Humidity;BMP_temperature;BMP_pressure;BME280_temperature;BME280_humidity;BME280_pressure;Samples;Min_cycle;Max_cycle;Signal;HPM_P1;HPM_P2
2022/05/29 00:03:01;;;;;;;;;;;;;;;21.91;40.01;95365.66;10350614;28;2275;-61
2022/05/29 00:08:03;;;;;;;;;;;;;;;21.91;40.02;95360.38;10359176;28;2224;-62
2022/05/29 00:13:03;;;;;;;;;;;;;;;21.90;40.19;95360.66;10353576;28;2267;-62
2022/05/29 00:18:05;;;;;;;;;;;;;;;21.88;39.97;95353.06;10342177;28;2250;-62
2022/05/29 00:23:06;;;;;;;;;;;;;;;21.88;40.40;95348.53;10352707;28;2304;-61
2022/05/29 00:28:06;;;;;;;;;;;;;;;21.89;40.11;95346.69;10339879;28;2292;-60
2022/05/29 00:33:07;;;;;;;;;;;;;;;21.88;40.33;95345.13;10341686;28;2435;-60
2022/05/29 00:38:08;;;;;;;;;;;;;;;21.88;40.25;95331.16;10337473;28;2253;-61
2022/05/29 00:43:09;;;;;;;;;;;;;;;21.85;40.45;95332.50;10345779;28;2245;-61
2022/05/29 00:48:11;;;;;;;;;;;;;;;21.85;40.07;95321.97;10321388;28;2277;-61
2022/05/29 00:53:14;;;;;;;;;;;;;;;21.83;40.05;95310.91;10337173;28;2348;-62
2022/05/29 00:58:14;;;;;;;;;;;;;;;21.83;40.09;95303.00;10353323;28;2228;-61
2022/05/29 01:03:15;;;;;;;;;;;;;;;21.83;39.96;95297.72;10332483;28;2206;-63
2022/05/29 01:08:23;;;;;;;;;;;;;;;21.81;40.31;95292.75;10333038;28;2302;-63
2022/05/29 01:13:36;;;;;;;;;;;;;;;21.80;39.89;95283.22;10343949;28;2224;-63
2022/05/29 01:18:43;;;;;;;;;;;;;;;21.81;39.92;95268.19;10356281;28;2324;-63
2022/05/29 01:24:03;;;;;;;;;;;;;;;21.80;39.74;95261.34;10342599;28;2168;-61
2022/05/29 01:29:05;;;;;;;;;;;;;;;21.78;39.94;95247.66;10354702;28;2331;-63
2022/05/29 01:34:09;;;;;;;;;;;;;;;21.78;39.82;95242.41;10319597;28;2236;-62
2022/05/29 01:39:10;;;;;;;;;;;;;;;21.78;39.59;95226.56;10339132;28;2367;-63
2022/05/29 01:44:30;;;;;;;;;;;;;;;21.78;39.61;95227.31;10327453;28;2349;-62
2022/05/29 01:49:34;;;;;;;;;;;;;;;21.77;39.96;95211.78;10353526;28;2505;-63
2022/05/29 01:54:35;;;;;;;;;;;;;;;21.77;39.54;95214.44;10338165;28;2509;-62
2022/05/29 02:00:11;;;;;;;;;;;;;;;21.76;39.73;95202.34;10335702;28;2276;-62
2022/05/29 02:05:12;;;;;;;;;;;;;;;21.74;39.66;95188.66;10305012;28;2477;-62
2022/05/29 02:10:15;;;;;;;;;;;;;;;21.74;39.69;95178.09;10343739;28;2424;-63
2022/05/29 02:15:16;;;;;;;;;;;;;;;21.74;39.59;95178.09;10335154;28;2335;-59
2022/05/29 02:20:26;;;;;;;;;;;;;;;21.74;39.70;95162.28;10320221;28;2503;-62
2022/05/29 02:25:26;;;;;;;;;;;;;;;21.72;39.69;95153.88;10322718;28;2432;-63
2022/05/29 02:30:29;;;;;;;;;;;;;;;21.72;39.65;95145.97;10318312;28;2345;-63
2022/05/29 02:35:33;;;;;;;;;;;;;;;21.73;39.42;95145.66;10319548;28;2460;-63
2022/05/29 02:41:09;;;;;;;;;;;;;;;21.72;39.57;95138.81;10360886;28;2283;-63
2022/05/29 02:46:27;;;;;;;;;;;;;;;21.71;39.76;95139.91;10294730;28;2453;-63
2022/05/29 02:51:27;;;;;;;;;;;;;;;21.70;39.70;95140.19;10356082;28;2021;-62
2022/05/29 02:56:28;;;;;;;;;;;;;;;21.69;39.71;95134.13;10336745;28;2304;-60
2022/05/29 03:01:29;;;;;;;;;;;;;;;21.70;39.43;95140.19;10360341;28;2349;-60
2022/05/29 03:06:44;;;;;;;;;;;;;;;21.69;39.63;95128.06;10342646;28;2410;-62
2022/05/29 03:11:46;;;;;;;;;;;;;;;21.69;39.55;95120.16;10335989;28;2201;-60
2022/05/29 03:16:47;;;;;;;;;;;;;;;21.67;39.36;95114.41;10358685;28;2242;-62
2022/05/29 03:21:50;;;;;;;;;;;;;;;21.67;39.16;95115.19;10339039;28;2312;-62
2022/05/29 03:26:50;;;;;;;;;;;;;;;21.66;39.52;95116.25;10353349;28;2358;-63
2022/05/29 03:31:51;;;;;;;;;;;;;;;21.67;39.46;95114.41;10355753;28;2441;-63
2022/05/29 03:36:51;;;;;;;;;;;;;;;21.65;39.37;95111.28;10341285;28;2359;-63
2022/05/29 03:41:52;;;;;;;;;;;;;;;21.63;39.41;95108.94;10356526;28;2350;-63
2022/05/29 03:46:52;;;;;;;;;;;;;;;21.65;39.58;95111.28;10352228;28;2255;-63
2022/05/29 03:51:54;;;;;;;;;;;;;;;21.63;39.53;95111.59;10356294;28;2318;-63
2022/05/29 03:56:54;;;;;;;;;;;;;;;21.64;39.44;95120.25;10340793;28;2384;-63
2022/05/29 04:01:55;;;;;;;;;;;;;;;21.64;39.51;95112.34;10351076;28;2330;-62
2022/05/29 04:06:55;;;;;;;;;;;;;;;21.62;39.44;95096.81;10342515;28;2372;-63
2022/05/29 04:12:05;;;;;;;;;;;;;;;21.63;39.59;95095.75;10342208;28;2348;-62
2022/05/29 04:17:07;;;;;;;;;;;;;;;21.63;39.39;95098.41;10356920;28;2330;-63
2022/05/29 04:22:08;;;;;;;;;;;;;;;21.63;39.61;95082.56;10340015;28;2331;-62
2022/05/29 04:27:09;;;;;;;;;;;;;;;21.63;39.40;95087.84;10339196;28;2468;-62
2022/05/29 04:37:30;;;;;;;;;;;;;;;21.63;39.65;95079.16;10348437;28;2374;-62
2022/05/29 04:42:31;;;;;;;;;;;;;;;21.62;39.31;95059.88;10351413;28;2382;-64
2022/05/29 04:47:32;;;;;;;;;;;;;;;21.63;39.56;95072.03;10347573;28;2410;-61
2022/05/29 04:52:33;;;;;;;;;;;;;;;21.64;39.79;95067.50;10351524;28;2616;-61
2022/05/29 04:57:34;;;;;;;;;;;;;;;21.63;39.75;95071.22;10348980;28;2433;-60
2022/05/29 05:02:34;;;;;;;;;;;;;;;21.63;39.84;95079.16;10337684;28;2356;-62
2022/05/29 05:07:35;;;;;;;;;;;;;;;21.63;39.81;95087.06;10338980;28;2289;-63
2022/05/29 05:12:36;;;;;;;;;;;;;;;21.63;39.91;95087.06;10350332;28;2394;-62
2022/05/29 05:17:36;;;;;;;;;;;;;;;21.61;39.87;95087.34;10337270;28;2379;-63
2022/05/29 05:22:38;;;;;;;;;;;;;;;21.63;40.02;95093.13;10355494;28;2457;-61
2022/05/29 05:27:39;;;;;;;;;;;;;;;21.63;39.97;95089.69;10351098;28;2719;-62
2022/05/29 05:32:40;;;;;;;;;;;;;;;21.62;40.01;95094.19;10370535;28;2330;-62
2022/05/29 05:37:42;;;;;;;;;;;;;;;21.61;39.64;95099.75;10358629;28;2358;-62
2022/05/29 05:42:42;;;;;;;;;;;;;;;21.61;39.91;95102.41;10352813;28;2410;-60
2022/05/29 05:47:43;;;;;;;;;;;;;;;21.60;39.66;95104.25;10350405;28;2334;-60
2022/05/29 05:52:44;;;;;;;;;;;;;;;21.61;39.87;95116.38;10329078;28;2258;-61
2022/05/29 05:57:44;;;;;;;;;;;;;;;21.61;39.49;95099.75;10336553;28;2222;-58
2022/05/29 06:02:44;;;;;;;;;;;;;;;21.60;39.65;95103.47;10332678;28;3286;-61
2022/05/29 06:07:45;;;;;;;;;;;;;;;21.60;39.55;95098.19;10344123;28;2328;-61
2022/05/29 06:12:45;;;;;;;;;;;;;;;21.60;39.42;95100.81;10336112;28;2210;-60
2022/05/29 06:17:45;;;;;;;;;;;;;;;21.59;39.44;95101.91;10337063;28;2286;-59
2022/05/29 06:22:45;;;;;;;;;;;;;;;21.60;39.47;95103.47;10348096;28;2312;-62
2022/05/29 06:27:46;;;;;;;;;;;;;;;21.59;39.64;95104.53;10342453;28;2209;-60
2022/05/29 06:32:47;;;;;;;;;;;;;;;21.59;39.61;95099.28;10336149;28;2234;-59
2022/05/29 06:37:48;;;;;;;;;;;;;;;21.59;39.67;95091.34;10356132;28;2295;-63
2022/05/29 06:42:49;;;;;;;;;;;;;;;21.58;39.71;95079.22;10367460;28;2321;-62
2022/05/29 06:47:49;;;;;;;;;;;;;;;21.59;39.80;95084.22;10367697;28;2202;-62
2022/05/29 06:52:50;;;;;;;;;;;;;;;21.58;39.51;95071.31;10364189;28;2372;-62
2022/05/29 06:57:51;;;;;;;;;;;;;;;21.60;39.77;95074.44;10383203;28;2336;-59
2022/05/29 07:08:11;;;;;;;;;;;;;;;21.63;39.75;95092.34;10377728;28;2280;-61
2022/05/29 07:13:11;;;;;;;;;;;;;;;21.63;39.69;95082.56;10381899;28;2185;-62
2022/05/29 07:18:11;;;;;;;;;;;;;;;21.63;39.75;95087.84;10379437;28;2193;-62
2022/05/29 07:23:14;;;;;;;;;;;;;;;21.64;39.77;95084.13;10372092;28;2311;-62
2022/05/29 07:28:15;;;;;;;;;;;;;;;21.66;39.81;95075.91;10364529;28;2185;-62
2022/05/29 07:33:15;;;;;;;;;;;;;;;21.65;39.87;95095.44;10375855;28;2280;-62
2022/05/29 07:38:16;;;;;;;;;;;;;;;21.65;39.90;95079.63;10355744;28;2285;-63
2022/05/29 07:43:19;;;;;;;;;;;;;;;21.65;39.93;95093.59;10371519;28;2272;-60
2022/05/29 07:48:20;;;;;;;;;;;;;;;21.64;39.76;95078.06;10377299;28;2161;-62
2022/05/29 07:53:20;;;;;;;;;;;;;;;21.64;39.58;95072.78;10355647;28;2243;-63
2022/05/29 07:58:21;;;;;;;;;;;;;;;21.64;39.87;95083.31;10375102;28;2156;-63
2022/05/29 08:03:23;;;;;;;;;;;;;;;21.65;39.81;95084.91;10358096;28;2210;-63
2022/05/29 08:08:24;;;;;;;;;;;;;;;21.65;39.65;95095.44;10380216;28;2235;-64
2022/05/29 08:13:25;;;;;;;;;;;;;;;21.64;39.84;95085.97;10359872;28;2242;-62
2022/05/29 08:18:25;;;;;;;;;;;;;;;21.63;39.70;95079.94;10378871;28;2312;-61
2022/05/29 08:23:26;;;;;;;;;;;;;;;21.64;40.07;95093.88;10359495;28;2300;-63
2022/05/29 08:33:47;;;;;;;;;;;;;;;21.64;39.60;95083.31;10361664;28;2253;-62
2022/05/29 08:38:47;;;;;;;;;;;;;;;21.63;39.83;95090.47;10375102;28;2228;-62
2022/05/29 08:43:48;;;;;;;;;;;;;;;21.65;39.97;95087.53;10339360;28;2346;-63
2022/05/29 08:48:48;;;;;;;;;;;;;;;21.53;38.82;95088.06;10355209;28;2327;-63
2022/05/29 08:53:51;;;;;;;;;;;;;;;21.43;38.17;95103.28;10352602;28;2408;-59
2022/05/29 08:58:51;;;;;;;;;;;;;;;21.34;37.97;95099.78;10353020;28;2232;-61
2022/05/29 09:03:59;;;;;;;;;;;;;;;21.28;37.94;95107.00;10356681;28;2255;-61
2022/05/29 09:09:03;;;;;;;;;;;;;;;21.22;37.55;95073.91;10322439;28;2260;-61
2022/05/29 09:14:08;;;;;;;;;;;;;;;21.23;37.52;95087.84;10351024;28;2211;-63
2022/05/29 09:19:10;;;;;;;;;;;;;;;21.15;37.21;95075.34;10331982;28;2305;-61
2022/05/29 09:24:23;;;;;;;;;;;;;;;21.13;37.52;95083.56;10330127;28;2301;-61
2022/05/29 09:29:23;;;;;;;;;;;;;;;21.24;38.63;95078.88;10344720;28;2244;-61
2022/05/29 09:34:24;;;;;;;;;;;;;;;21.35;38.82;95085.53;10357431;28;2225;-61
2022/05/29 09:39:32;;;;;;;;;;;;;;;21.48;38.70;95084.72;10347973;28;2338;-63
2022/05/29 09:44:32;;;;;;;;;;;;;;;21.52;39.05;95080.41;10353306;28;2280;-63
2022/05/29 09:49:42;;;;;;;;;;;;;;;21.54;39.06;95084.31;10354317;28;2276;-63
2022/05/29 09:54:44;;;;;;;;;;;;;;;21.53;38.57;95082.00;10354598;28;2229;-63
2022/05/29 09:59:44;;;;;;;;;;;;;;;21.49;38.29;95075.75;10352776;28;2189;-63
2022/05/29 10:04:45;;;;;;;;;;;;;;;21.47;37.71;95072.63;10366547;28;2448;-63
2022/05/29 10:09:55;;;;;;;;;;;;;;;21.39;37.54;95065.41;10330250;28;2335;-62
2022/05/29 10:14:55;;;;;;;;;;;;;;;21.45;38.09;95069.50;10349088;28;2177;-62
2022/05/29 10:19:56;;;;;;;;;;;;;;;21.35;36.57;95059.94;10343875;28;2249;-62
2022/05/29 10:24:56;;;;;;;;;;;;;;;21.17;36.35;95057.41;10334109;28;2533;-61
2022/05/29 10:29:58;;;;;;;;;;;;;;;21.03;36.59;95047.66;10326664;28;2275;-62
2022/05/29 10:35:34;;;;;;;;;;;;;;;21.04;36.54;95049.19;10333696;28;2284;-62
2022/05/29 10:40:34;;;;;;;;;;;;;;;20.99;36.43;95051.13;10255210;28;2181;-62
2022/05/29 10:45:40;;;;;;;;;;;;;;;21.06;36.50;95044.41;10321693;28;2142;-59
2022/05/29 10:50:57;;;;;;;;;;;;;;;21.12;36.80;95046.97;10325320;28;2082;-60
2022/05/29 10:56:02;;;;;;;;;;;;;;;21.15;36.99;95039.25;10332433;28;2304;-60
2022/05/29 11:06:50;;;;;;;;;;;;;;;21.19;37.57;95042.84;10356608;28;2289;-59
2022/05/29 11:11:50;;;;;;;;;;;;;;;21.20;37.83;95047.06;10342719;28;2276;-61
2022/05/29 11:17:10;;;;;;;;;;;;;;;21.19;37.57;95052.63;10359398;28;2358;-61
2022/05/29 11:22:21;;;;;;;;;;;;;;;21.04;36.79;95054.47;10360159;28;2228;-58
2022/05/29 11:27:40;;;;;;;;;;;;;;;20.85;36.62;95060.88;10344098;28;2328;-61
2022/05/29 11:32:59;;;;;;;;;;;;;;;20.71;37.11;95073.25;10353059;28;2288;-63
2022/05/29 11:37:59;;;;;;;;;;;;;;;20.57;36.94;95081.13;10342627;28;2274;-63
2022/05/29 11:43:05;;;;;;;;;;;;;;;20.40;37.40;95080.91;10343093;28;2166;-63
2022/05/29 11:53:34;;;;;;;;;;;;;;;19.66;38.66;95101.94;10335972;28;2237;-62
2022/05/29 11:58:38;;;;;;;;;;;;;;;19.18;39.25;95095.91;10359966;28;2219;-59
2022/05/29 12:03:49;;;;;;;;;;;;;;;19.07;39.78;95089.97;10350730;28;2323;-63
2022/05/29 12:09:01;;;;;;;;;;;;;;;19.37;39.82;95094.16;10355331;28;2344;-61
2022/05/29 12:14:16;;;;;;;;;;;;;;;19.68;39.76;95097.19;10336571;28;2205;-61
2022/05/29 12:19:18;;;;;;;;;;;;;;;19.98;39.52;95105.44;10338952;28;2301;-62
2022/05/29 12:24:20;;;;;;;;;;;;;;;20.19;40.66;95106.75;10338887;28;2320;-62
2022/05/29 12:29:29;;;;;;;;;;;;;;;20.36;41.01;95105.44;10354182;28;2252;-59
2022/05/29 12:34:31;;;;;;;;;;;;;;;20.50;41.17;95107.06;10325986;28;2360;-61
2022/05/29 12:39:31;;;;;;;;;;;;;;;20.59;41.70;95109.78;10332719;28;2205;-62
2022/05/29 12:44:40;;;;;;;;;;;;;;;20.68;42.17;95103.59;10351871;28;2377;-62
2022/05/29 12:49:41;;;;;;;;;;;;;;;20.76;42.46;95110.81;10350981;28;2240;-62
2022/05/29 12:54:45;;;;;;;;;;;;;;;20.84;42.78;95109.34;10349622;28;2272;-61
2022/05/29 13:00:04;;;;;;;;;;;;;;;20.90;42.76;95101.09;10336069;28;2187;-61
2022/05/29 13:05:04;;;;;;;;;;;;;;;20.91;42.89;95102.66;10353785;28;2325;-61
2022/05/29 13:10:24;;;;;;;;;;;;;;;20.94;42.78;95098.63;10359902;28;2343;-61
2022/05/29 13:15:28;;;;;;;;;;;;;;;20.93;42.91;95089.97;10322308;28;2232;-61
2022/05/29 13:20:29;;;;;;;;;;;;;;;20.94;43.03;95085.47;10311567;28;2152;-62
2022/05/29 13:25:50;;;;;;;;;;;;;;;20.90;42.78;95085.28;10319612;28;2339;-61
2022/05/29 13:31:07;;;;;;;;;;;;;;;20.98;43.34;95073.28;10353827;28;2316;-61
2022/05/29 13:36:07;;;;;;;;;;;;;;;21.02;43.02;95076.91;10339967;28;2323;-61
2022/05/29 13:41:07;;;;;;;;;;;;;;;21.10;43.15;95083.38;10349912;28;2394;-61
2022/05/29 13:46:17;;;;;;;;;;;;;;;21.11;42.12;95080.44;10334386;28;2586;-60
2022/05/29 13:51:25;;;;;;;;;;;;;;;21.15;42.02;95064.81;10355341;28;2570;-62
2022/05/29 13:56:45;;;;;;;;;;;;;;;21.17;41.74;95068.72;10321939;28;2197;-60
2022/05/29 14:07:11;;;;;;;;;;;;;;;21.22;42.96;95066.00;10334235;28;2318;-62
2022/05/29 14:12:20;;;;;;;;;;;;;;;21.28;43.31;95071.94;10366558;28;2200;-62
2022/05/29 14:17:20;;;;;;;;;;;;;;;21.30;43.66;95069.81;10348684;28;2316;-60
2022/05/29 14:22:45;;;;;;;;;;;;;;;21.31;42.88;95068.75;10342121;28;2282;-62
2022/05/29 14:28:08;;;;;;;;;;;;;;;21.30;43.08;95062.69;10354012;28;2387;-61
2022/05/29 14:33:11;;;;;;;;;;;;;;;21.32;42.88;95070.28;10335977;28;2233;-62
2022/05/29 14:38:24;;;;;;;;;;;;;;;21.31;42.81;95063.47;10359391;28;2208;-60
2022/05/29 14:43:28;;;;;;;;;;;;;;;21.31;42.67;95063.47;10342300;28;2165;-62
2022/05/29 14:48:47;;;;;;;;;;;;;;;21.32;42.57;95065.00;10339434;28;2219;-62
2022/05/29 14:53:58;;;;;;;;;;;;;;;21.32;43.12;95071.06;10332751;28;2160;-63
2022/05/29 14:59:16;;;;;;;;;;;;;;;21.32;43.22;95080.84;10334761;28;2201;-61
2022/05/29 15:04:17;;;;;;;;;;;;;;;21.33;42.98;95082.41;10352011;28;2140;-62
2022/05/29 15:14:36;;;;;;;;;;;;;;;21.33;43.14;95082.41;10360977;28;2121;-60
2022/05/29 15:25:06;;;;;;;;;;;;;;;21.30;43.30;95089.03;10337917;28;2237;-60
2022/05/29 15:30:12;;;;;;;;;;;;;;;21.31;42.70;95089.84;10353237;28;2228;-61
2022/05/29 15:35:19;;;;;;;;;;;;;;;21.30;42.52;95089.03;10340014;28;2205;-59
2022/05/29 15:40:38;;;;;;;;;;;;;;;21.30;42.96;95090.88;10335608;28;2181;-60
2022/05/29 15:45:45;;;;;;;;;;;;;;;21.30;42.58;95117.25;10345216;28;2126;-59
2022/05/29 15:50:57;;;;;;;;;;;;;;;21.29;42.36;95118.34;10346491;28;2275;-62
2022/05/29 15:56:06;;;;;;;;;;;;;;;21.28;42.37;95120.19;10349154;28;2318;-61
2022/05/29 16:01:08;;;;;;;;;;;;;;;21.28;42.11;95128.09;10340158;28;2384;-60
2022/05/29 16:06:19;;;;;;;;;;;;;;;21.26;42.05;95130.25;10341114;28;2107;-61
2022/05/29 16:11:38;;;;;;;;;;;;;;;21.28;42.26;95137.84;10338584;28;2480;-58
2022/05/29 16:16:41;;;;;;;;;;;;;;;21.27;42.25;95133.66;10340536;28;2343;-61
2022/05/29 16:21:44;;;;;;;;;;;;;;;21.27;42.16;95146.84;10354126;28;2232;-61
2022/05/29 16:26:46;;;;;;;;;;;;;;;21.28;42.09;95138.63;10336920;28;2179;-59
2022/05/29 16:31:49;;;;;;;;;;;;;;;21.27;42.29;95144.97;10332418;28;2175;-62
2022/05/29 16:53:11;;;;;;;;;;;;;;;21.25;42.27;95157.66;10354171;28;2432;-62
2022/05/29 16:58:13;;;;;;;;;;;;;;;21.26;42.33;95166.34;10357233;28;2605;-61
2022/05/29 17:03:34;;;;;;;;;;;;;;;21.26;42.58;95159.25;10339518;28;2363;-63
2022/05/29 17:08:50;;;;;;;;;;;;;;;21.24;42.35;95152.69;10338018;28;2303;-62
2022/05/29 17:13:51;;;;;;;;;;;;;;;21.25;42.08;95159.50;10325873;28;2324;-60
2022/05/29 17:18:52;;;;;;;;;;;;;;;21.23;42.03;95157.16;10355427;28;2272;-59
2022/05/29 17:24:11;;;;;;;;;;;;;;;21.22;41.92;95150.34;10346049;28;2459;-61
2022/05/29 17:29:16;;;;;;;;;;;;;;;21.22;42.29;95139.81;10355175;28;2181;-62
2022/05/29 17:34:18;;;;;;;;;;;;;;;21.24;42.18;95139.50;10326893;28;2276;-61
2022/05/29 17:39:25;;;;;;;;;;;;;;;21.23;42.25;95133.44;10332284;28;2329;-63
2022/05/29 17:44:25;;;;;;;;;;;;;;;21.23;42.13;95132.66;10337274;28;2298;-64
2022/05/29 17:49:35;;;;;;;;;;;;;;;21.23;42.24;95130.03;10350623;28;2247;-64
2022/05/29 17:54:40;;;;;;;;;;;;;;;21.23;42.17;95141.34;10344986;28;2356;-62
2022/05/29 17:59:41;;;;;;;;;;;;;;;21.23;42.27;95136.09;10372913;28;2319;-62
2022/05/29 18:04:42;;;;;;;;;;;;;;;21.24;41.79;95136.88;10332536;28;2211;-63
2022/05/29 18:09:42;;;;;;;;;;;;;;;21.23;42.35;95141.34;10383774;28;2398;-64
2022/05/29 18:14:42;;;;;;;;;;;;;;;21.24;41.83;95142.16;10378969;28;2209;-64
2022/05/29 18:19:43;;;;;;;;;;;;;;;21.23;41.70;95141.34;10382752;28;2200;-64
2022/05/29 18:24:44;;;;;;;;;;;;;;;21.24;41.96;95142.16;10377622;28;2290;-60
2022/05/29 18:29:44;;;;;;;;;;;;;;;21.23;41.95;95136.09;10359602;28;2268;-64
2022/05/29 18:34:45;;;;;;;;;;;;;;;21.24;41.81;95139.50;10384259;28;2212;-63
2022/05/29 18:39:45;;;;;;;;;;;;;;;21.24;41.88;95145.56;10362650;28;2269;-64
2022/05/29 18:44:46;;;;;;;;;;;;;;;21.24;41.73;95152.69;10381578;28;2247;-63
2022/05/29 18:49:50;;;;;;;;;;;;;;;21.22;41.85;95145.09;10370061;28;2096;-64
2022/05/29 18:54:50;;;;;;;;;;;;;;;21.23;41.75;95156.38;10348798;28;2189;-62
2022/05/29 18:59:57;;;;;;;;;;;;;;;21.23;41.81;95156.38;10389566;28;2196;-65
2022/05/29 19:04:58;;;;;;;;;;;;;;;21.22;42.02;95153.00;10362071;28;2149;-62
2022/05/29 19:09:59;;;;;;;;;;;;;;;21.21;42.21;95146.13;10362680;28;2252;-62
2022/05/29 19:14:59;;;;;;;;;;;;;;;21.21;41.85;95158.53;10360002;28;2234;-63
2022/05/29 19:19:59;;;;;;;;;;;;;;;21.19;42.06;95145.66;10361440;28;2192;-61
2022/05/29 19:25:01;;;;;;;;;;;;;;;21.18;42.09;95151.22;10360023;28;2296;-62
2022/05/29 19:30:06;;;;;;;;;;;;;;;21.18;42.14;95151.22;10385252;28;2073;-62
2022/05/29 19:35:08;;;;;;;;;;;;;;;21.18;42.14;95149.38;10358512;28;2242;-59
2022/05/29 19:40:13;;;;;;;;;;;;;;;21.18;42.13;95149.38;10354179;28;2237;-62
2022/05/29 19:45:19;;;;;;;;;;;;;;;21.20;42.12;95156.97;10343025;28;2122;-62
2022/05/29 19:50:21;;;;;;;;;;;;;;;21.19;42.38;95153.56;10348721;28;2252;-60
2022/05/29 19:55:22;;;;;;;;;;;;;;;21.20;42.35;95152.50;10357644;28;2150;-59
2022/05/29 20:00:23;;;;;;;;;;;;;;;21.18;42.45;95154.66;10353429;28;2285;-61
2022/05/29 20:05:23;;;;;;;;;;;;;;;21.19;42.45;95147.50;10353554;28;2256;-61
2022/05/29 20:10:24;;;;;;;;;;;;;;;21.18;42.50;95152.00;10353291;28;2244;-61
2022/05/29 20:15:24;;;;;;;;;;;;;;;21.17;42.50;95141.72;10340644;28;2153;-61
2022/05/29 20:20:24;;;;;;;;;;;;;;;21.16;42.64;95146.25;10342011;28;2251;-60
2022/05/29 20:25:25;;;;;;;;;;;;;;;21.15;42.74;95144.66;10352809;28;2316;-61
2022/05/29 20:30:25;;;;;;;;;;;;;;;21.16;42.40;95150.72;10343451;28;2253;-61
2022/05/29 20:35:26;;;;;;;;;;;;;;;21.14;42.49;95148.41;10356632;28;2189;-61
2022/05/29 20:40:26;;;;;;;;;;;;;;;21.14;42.36;95158.16;10348560;28;2225;-60
2022/05/29 20:45:26;;;;;;;;;;;;;;;21.13;42.55;95162.63;10344492;28;2372;-61
2022/05/29 20:50:27;;;;;;;;;;;;;;;21.13;42.24;95156.56;10353504;28;2237;-59
2022/05/29 20:55:27;;;;;;;;;;;;;;;21.12;42.64;95162.94;10334752;28;2249;-58
2022/05/29 21:00:28;;;;;;;;;;;;;;;21.13;42.46;95167.09;10337116;28;2272;-62
2022/05/29 21:05:29;;;;;;;;;;;;;;;21.11;42.41;95158.72;10342741;28;2124;-61
2022/05/29 21:10:30;;;;;;;;;;;;;;;21.11;42.16;95158.72;10355320;28;2299;-62
2022/05/29 21:15:30;;;;;;;;;;;;;;;21.10;42.38;95159.81;10331080;28;2275;-63
2022/05/29 21:20:30;;;;;;;;;;;;;;;21.08;42.38;95143.50;10353284;28;2173;-60
2022/05/29 21:25:31;;;;;;;;;;;;;;;21.07;42.56;95142.72;10348265;28;2311;-61
2022/05/29 21:30:31;;;;;;;;;;;;;;;21.06;42.49;95135.91;10335464;28;2229;-59
2022/05/29 21:35:35;;;;;;;;;;;;;;;21.04;42.45;95136.16;10338066;28;2248;-62
2022/05/29 21:40:36;;;;;;;;;;;;;;;21.04;42.02;95127.50;10339810;28;2275;-66
2022/05/29 21:45:36;;;;;;;;;;;;;;;21.03;42.09;95126.72;10351867;28;2095;-61
2022/05/29 21:50:36;;;;;;;;;;;;;;;21.03;42.55;95131.19;10339095;28;2585;-61
2022/05/29 21:55:37;;;;;;;;;;;;;;;21.03;42.04;95123.28;10334559;28;2216;-62
2022/05/29 22:00:41;;;;;;;;;;;;;;;21.01;42.11;95120.13;10339903;28;2168;-62
2022/05/29 22:05:42;;;;;;;;;;;;;;;21.01;42.10;95117.50;10350718;28;2117;-60
2022/05/29 22:10:45;;;;;;;;;;;;;;;21.00;42.24;95105.38;10349615;28;2267;-60
2022/05/29 22:15:46;;;;;;;;;;;;;;;20.99;42.18;95109.88;10353879;28;2110;-58
2022/05/29 22:20:46;;;;;;;;;;;;;;;20.98;41.87;95110.94;10344137;28;2348;-60
2022/05/29 22:25:47;;;;;;;;;;;;;;;20.97;41.90;95104.13;10331878;28;2733;-62
2022/05/29 22:30:47;;;;;;;;;;;;;;;20.97;41.97;95101.50;10319263;28;2233;-62
2022/05/29 22:35:48;;;;;;;;;;;;;;;20.96;41.93;95102.56;10320913;28;2130;-61
2022/05/29 22:40:49;;;;;;;;;;;;;;;20.95;41.79;95097.59;10319937;28;2305;-58
2022/05/29 22:46:09;;;;;;;;;;;;;;;20.94;41.69;95099.44;10354574;28;2221;-58
2022/05/29 22:51:11;;;;;;;;;;;;;;;20.93;42.17;95095.25;10351280;28;2353;-59
2022/05/29 22:56:12;;;;;;;;;;;;;;;20.92;41.86;95098.94;10356804;28;2192;-61
2022/05/29 23:01:12;;;;;;;;;;;;;;;20.92;41.68;95098.16;10354057;28;2197;-61
2022/05/29 23:06:13;;;;;;;;;;;;;;;20.91;41.67;95094.75;10338767;28;2400;-61
2022/05/29 23:11:20;;;;;;;;;;;;;;;20.91;41.59;95088.69;10357381;28;2264;-60
2022/05/29 23:16:21;;;;;;;;;;;;;;;20.89;41.86;95083.72;10344233;28;2333;-61
2022/05/29 23:21:21;;;;;;;;;;;;;;;20.89;41.75;95086.38;10358625;28;2193;-59
2022/05/29 23:26:21;;;;;;;;;;;;;;;20.88;41.40;95092.69;10349646;28;2260;-60
2022/05/29 23:31:22;;;;;;;;;;;;;;;20.87;41.38;95082.44;10356869;28;2208;-61
2022/05/29 23:36:22;;;;;;;;;;;;;;;20.86;41.30;95078.25;10347817;28;2157;-61
2022/05/29 23:46:45;;;;;;;;;;;;;;;20.83;41.36;95079.63;10352229;28;2154;-61
2022/05/29 23:51:45;;;;;;;;;;;;;;;20.84;41.64;95077.75;10339518;28;2308;-62
2022/05/29 23:56:45;;;;;;;;;;;;;;;20.82;41.41;95077.25;10343650;28;2243;-62
